createdAt,value
2022-11-07T00:01:49.180Z,4.75
2022-11-07T00:04:16.995Z,4.43
2022-11-07T00:06:44.288Z,4.35
2022-11-07T00:09:11.390Z,4.13
2022-11-07T00:11:38.060Z,3.63
2022-11-07T00:14:05.055Z,4.68
2022-11-07T00:16:32.745Z,3.65
2022-11-07T00:18:59.520Z,3.45
2022-11-07T00:21:26.931Z,3.20
2022-11-07T00:23:54.839Z,2.45
2022-11-07T00:26:22.235Z,2.53
2022-11-07T00:28:50.198Z,2.30
2022-11-07T00:31:17.801Z,2.28
2022-11-07T00:33:46.152Z,2.10
2022-11-07T00:36:24.724Z,2.60
2022-11-07T00:38:51.936Z,2.45
2022-11-07T00:41:18.966Z,2.13
2022-11-07T00:43:45.854Z,2.22
2022-11-07T00:46:14.655Z,2.20
2022-11-07T00:48:42.454Z,1.88
2022-11-07T00:51:24.775Z,2.08
2022-11-07T00:53:52.090Z,1.70
2022-11-07T00:56:21.502Z,2.17
2022-11-07T00:58:48.340Z,1.98
2022-11-07T01:01:16.664Z,2.17
2022-11-07T01:04:04.086Z,1.92
2022-11-07T01:06:33.305Z,2.55
2022-11-07T01:09:00.154Z,2.20
2022-11-07T01:11:28.880Z,1.88
2022-11-07T01:13:56.906Z,1.70
2022-11-07T01:16:24.343Z,2.47
2022-11-07T01:18:51.271Z,2.20
2022-11-07T01:21:17.954Z,1.80
2022-11-07T01:23:44.784Z,1.73
2022-11-07T01:26:12.692Z,1.42
2022-11-07T01:28:40.031Z,1.60
2022-11-07T01:31:10.072Z,1.50
2022-11-07T01:33:37.704Z,1.50
2022-11-07T01:36:08.869Z,1.73
2022-11-07T01:38:36.660Z,1.75
2022-11-07T01:41:21.667Z,1.35
2022-11-07T01:44:00.676Z,1.35
2022-11-07T01:46:36.554Z,1.38
2022-11-07T01:49:27.811Z,1.60
2022-11-07T01:52:07.003Z,1.55
2022-11-07T01:55:01.521Z,1.17
2022-11-07T01:57:37.100Z,1.60
2022-11-07T02:00:09.410Z,1.88
2022-11-07T02:05:06.691Z,1.85
2022-11-07T02:07:33.799Z,2.10
2022-11-07T02:10:01.508Z,2.28
2022-11-07T02:12:29.125Z,1.40
2022-11-07T02:14:56.343Z,1.80
2022-11-07T02:17:23.284Z,1.80
2022-11-07T02:19:53.879Z,1.60
2022-11-07T02:22:42.312Z,1.42
2022-11-07T02:25:12.488Z,2.10
2022-11-07T02:27:41.511Z,2.13
2022-11-07T02:30:14.865Z,2.63
2022-11-07T02:32:41.581Z,2.50
2022-11-07T02:35:42.147Z,2.28
2022-11-07T02:38:14.914Z,2.47
2022-11-07T02:40:43.467Z,2.28
2022-11-07T02:43:12.922Z,2.30
2022-11-07T02:45:43.598Z,2.40
2022-11-07T02:48:10.387Z,2.30
2022-11-07T02:50:37.169Z,2.17
2022-11-07T02:53:03.928Z,2.33
2022-11-07T02:55:30.572Z,2.00
2022-11-07T02:57:57.260Z,2.53
2022-11-07T03:00:24.115Z,2.50
2022-11-07T03:02:50.980Z,1.90
2022-11-07T03:05:19.998Z,1.80
2022-11-07T03:07:48.681Z,1.70
2022-11-07T03:10:16.671Z,1.95
2022-11-07T03:12:43.742Z,1.80
2022-11-07T03:15:11.763Z,1.85
2022-11-07T03:17:38.536Z,2.00
2022-11-07T03:20:05.884Z,2.10
2022-11-07T03:22:32.614Z,2.00
2022-11-07T03:24:59.310Z,1.98
2022-11-07T03:27:26.260Z,1.50
2022-11-07T03:29:52.899Z,1.92
2022-11-07T03:32:19.645Z,1.98
2022-11-07T03:34:46.400Z,2.10
2022-11-07T03:37:13.089Z,1.88
2022-11-07T03:39:39.756Z,1.80
2022-11-07T03:42:06.430Z,1.95
2022-11-07T03:44:33.075Z,1.55
2022-11-07T03:46:59.782Z,1.65
2022-11-07T03:49:26.462Z,1.70
2022-11-07T03:51:53.134Z,1.60
2022-11-07T03:54:19.802Z,1.60
2022-11-07T03:56:46.511Z,1.38
2022-11-07T03:59:13.187Z,1.60
2022-11-07T04:01:39.967Z,1.55
2022-11-07T04:04:06.780Z,1.23
2022-11-07T04:06:33.478Z,1.38
2022-11-07T04:09:00.181Z,1.42
2022-11-07T04:11:45.339Z,1.40
2022-11-07T04:14:30.747Z,1.40
2022-11-07T04:17:16.178Z,1.05
2022-11-07T04:19:42.857Z,1.25
2022-11-07T04:22:09.628Z,1.35
2022-11-07T04:24:38.289Z,1.10
2022-11-07T04:27:28.574Z,1.17
2022-11-07T04:29:55.563Z,1.05
2022-11-07T04:32:24.246Z,1.20
2022-11-07T04:34:53.983Z,1.50
2022-11-07T04:37:20.649Z,1.10
2022-11-07T04:39:47.272Z,2.28
2022-11-07T04:42:13.969Z,3.88
2022-11-07T04:44:40.703Z,3.40
2022-11-07T04:47:07.406Z,2.30
2022-11-07T04:49:34.062Z,6.32
2022-11-07T04:52:00.753Z,9.68
2022-11-07T04:54:27.453Z,8.88
2022-11-07T04:56:54.105Z,9.45
2022-11-07T04:59:20.751Z,7.70
2022-11-07T05:01:47.504Z,8.15
2022-11-07T05:04:14.212Z,4.38
2022-11-07T05:06:42.124Z,5.03
2022-11-07T05:09:09.610Z,3.40
2022-11-07T05:11:36.306Z,5.18
2022-11-07T05:14:02.966Z,2.88
2022-11-07T05:16:32.703Z,1.70
2022-11-07T05:18:59.375Z,1.30
2022-11-07T05:21:26.077Z,1.60
2022-11-07T05:23:52.805Z,1.17
2022-11-07T05:26:19.620Z,1.30
2022-11-07T05:28:46.375Z,1.38
2022-11-07T05:31:16.872Z,1.52
2022-11-07T05:33:44.285Z,1.38
2022-11-07T05:36:15.116Z,1.65
2022-11-07T05:38:43.522Z,2.08
2022-11-07T05:41:10.769Z,2.17
2022-11-07T05:43:38.764Z,1.90
2022-11-07T05:46:06.086Z,1.75
2022-11-07T05:48:32.964Z,2.30
2022-11-07T05:50:59.897Z,1.80
2022-11-07T05:53:28.066Z,1.77
2022-11-07T05:55:55.503Z,2.00
2022-11-07T05:58:22.783Z,1.88
2022-11-07T06:00:49.776Z,1.75
2022-11-07T06:03:17.325Z,1.80
2022-11-07T06:05:44.747Z,1.95
2022-11-07T06:08:13.336Z,1.80
2022-11-07T06:10:41.804Z,1.98
2022-11-07T06:13:11.958Z,1.83
2022-11-07T06:15:39.802Z,1.95
2022-11-07T06:18:08.615Z,2.40
2022-11-07T06:20:35.509Z,3.08
2022-11-07T06:23:04.565Z,4.60
2022-11-07T06:25:32.043Z,3.30
2022-11-07T06:28:05.169Z,2.70
2022-11-07T06:30:32.249Z,2.72
2022-11-07T06:33:03.962Z,2.60
2022-11-07T06:35:31.164Z,2.40
2022-11-07T06:38:02.477Z,2.45
2022-11-07T06:40:29.900Z,1.88
2022-11-07T06:42:56.698Z,2.15
2022-11-07T06:45:23.452Z,2.15
2022-11-07T06:47:50.164Z,2.05
2022-11-07T06:50:16.919Z,2.33
2022-11-07T06:52:43.619Z,2.30
2022-11-07T06:55:10.286Z,2.08
2022-11-07T06:57:37.188Z,2.20
2022-11-07T07:00:05.704Z,2.00
2022-11-07T07:02:56.750Z,1.83
2022-11-07T07:05:21.270Z,2.47
2022-11-07T07:07:48.858Z,2.40
2022-11-07T07:10:15.650Z,2.70
2022-11-07T07:12:42.582Z,2.50
2022-11-07T07:15:09.460Z,1.95
2022-11-07T07:17:36.320Z,2.45
2022-11-07T07:20:04.658Z,2.15
2022-11-07T07:22:31.436Z,2.20
2022-11-07T07:24:58.090Z,2.00
2022-11-07T07:27:24.801Z,2.15
2022-11-07T07:29:53.452Z,2.42
2022-11-07T07:32:21.209Z,2.53
2022-11-07T07:34:48.189Z,2.70
2022-11-07T07:37:14.870Z,1.90
2022-11-07T07:39:41.602Z,2.30
2022-11-07T07:42:09.170Z,2.40
2022-11-07T07:44:36.407Z,2.33
2022-11-07T07:47:07.049Z,2.10
2022-11-07T07:49:36.897Z,2.22
2022-11-07T07:52:03.676Z,2.10
2022-11-07T07:54:30.446Z,2.00
2022-11-07T07:56:57.164Z,2.15
2022-11-07T07:59:23.907Z,1.65
2022-11-07T08:01:56.341Z,2.00
2022-11-07T08:04:23.957Z,1.90
2022-11-07T08:06:50.615Z,1.95
2022-11-07T08:09:17.248Z,2.03
2022-11-07T08:11:43.992Z,1.92
2022-11-07T08:14:11.601Z,2.40
2022-11-07T08:16:38.306Z,2.13
2022-11-07T08:19:04.969Z,1.70
2022-11-07T08:21:31.791Z,1.90
2022-11-07T08:23:58.537Z,1.90
2022-11-07T08:26:26.080Z,2.50
2022-11-07T08:28:54.066Z,2.20
2022-11-07T08:31:21.021Z,1.83
2022-11-07T08:33:47.771Z,1.70
2022-11-07T08:36:14.698Z,1.95
2022-11-07T08:38:41.393Z,1.80
2022-11-07T08:41:08.212Z,1.70
2022-11-07T08:43:34.911Z,1.92
2022-11-07T08:46:01.691Z,1.90
2022-11-07T08:48:28.379Z,3.00
2022-11-07T08:50:56.959Z,2.58
2022-11-07T08:53:25.430Z,1.80
2022-11-07T08:55:52.597Z,1.92
2022-11-07T08:58:20.093Z,1.60
2022-11-07T09:00:47.117Z,1.80
2022-11-07T09:06:01.145Z,1.50
2022-11-07T09:08:28.259Z,1.95
2022-11-07T09:10:54.931Z,1.65
2022-11-07T09:13:21.759Z,1.60
2022-11-07T09:15:51.424Z,1.58
2022-11-07T09:18:19.303Z,1.80
2022-11-07T09:20:45.984Z,1.60
2022-11-07T09:23:12.740Z,1.38
2022-11-07T09:25:39.590Z,1.85
2022-11-07T09:28:06.404Z,1.75
2022-11-07T09:30:33.206Z,1.50
2022-11-07T09:32:59.986Z,1.88
2022-11-07T09:35:27.274Z,2.03
2022-11-07T09:37:54.059Z,1.55
2022-11-07T09:40:40.291Z,1.90
2022-11-07T09:43:39.973Z,1.50
2022-11-07T09:46:18.045Z,2.05
2022-11-07T09:48:51.081Z,1.20
2022-11-07T09:51:34.369Z,1.33
2022-11-07T09:54:06.263Z,1.30
2022-11-07T09:56:34.023Z,2.03
2022-11-07T09:59:12.828Z,1.60
2022-11-07T10:01:41.613Z,1.70
2022-11-07T10:04:24.698Z,1.60
2022-11-07T10:07:12.320Z,1.58
2022-11-07T10:09:47.324Z,1.23
2022-11-07T10:12:44.599Z,1.30
2022-11-07T10:15:28.016Z,1.30
2022-11-07T10:18:09.983Z,1.15
2022-11-07T10:21:31.169Z,1.63
2022-11-07T10:24:18.462Z,1.35
2022-11-07T10:26:46.020Z,1.63
2022-11-07T10:29:21.339Z,1.38
2022-11-07T10:32:18.977Z,1.30
2022-11-07T10:34:58.107Z,1.45
2022-11-07T10:37:24.943Z,1.55
2022-11-07T10:39:51.643Z,1.30
2022-11-07T10:42:25.725Z,1.33
2022-11-07T10:44:55.200Z,1.20
2022-11-07T10:47:25.483Z,1.23
2022-11-07T10:50:01.451Z,1.40
2022-11-07T10:52:29.435Z,1.33
2022-11-07T10:55:07.671Z,1.75
2022-11-07T10:57:35.621Z,1.67
2022-11-07T11:00:03.913Z,1.45
2022-11-07T11:02:41.148Z,1.10
2022-11-07T11:05:28.726Z,0.90
2022-11-07T11:07:57.566Z,1.38
2022-11-07T11:10:28.529Z,1.65
2022-11-07T11:12:55.337Z,1.13
2022-11-07T11:15:25.039Z,1.00
2022-11-07T11:17:59.675Z,1.15
2022-11-07T11:20:34.979Z,1.20
2022-11-07T11:23:04.092Z,1.48
2022-11-07T11:25:30.881Z,1.08
2022-11-07T11:28:13.976Z,1.27
2022-11-07T11:30:41.509Z,1.25
2022-11-07T11:33:22.615Z,1.50
2022-11-07T11:36:14.557Z,1.20
2022-11-07T11:38:42.256Z,1.20
2022-11-07T11:41:24.250Z,1.38
2022-11-07T11:44:03.785Z,1.42
2022-11-07T11:46:30.429Z,1.23
2022-11-07T11:48:58.459Z,1.23
2022-11-07T11:51:48.903Z,1.40
2022-11-07T11:54:16.907Z,1.50
2022-11-07T11:56:58.958Z,1.05
2022-11-07T11:59:25.758Z,1.42
2022-11-07T12:02:20.375Z,1.25
2022-11-07T12:05:02.583Z,1.30
2022-11-07T12:07:54.234Z,1.40
2022-11-07T12:10:44.012Z,1.23
2022-11-07T12:13:38.609Z,1.10
2022-11-07T12:16:14.379Z,1.00
2022-11-07T12:19:03.322Z,1.10
2022-11-07T12:21:43.487Z,1.58
2022-11-07T12:24:15.319Z,1.80
2022-11-07T12:26:49.421Z,1.58
2022-11-07T12:29:42.274Z,1.92
2022-11-07T12:32:13.328Z,1.45
2022-11-07T12:34:48.191Z,1.30
2022-11-07T12:37:52.648Z,1.60
2022-11-07T12:40:31.532Z,1.77
2022-11-07T12:43:24.921Z,1.63
2022-11-07T12:46:06.036Z,1.80
2022-11-07T12:48:54.403Z,2.10
2022-11-07T12:51:49.099Z,1.88
2022-11-07T12:54:36.435Z,1.70
2022-11-07T12:57:09.214Z,1.50
2022-11-07T12:59:39.482Z,1.75
2022-11-07T13:02:43.393Z,1.20
2022-11-07T13:05:18.470Z,1.70
2022-11-07T13:08:34.782Z,1.42
2022-11-07T13:11:10.276Z,1.70
2022-11-07T13:13:53.423Z,1.73
2022-11-07T13:16:31.821Z,2.20
2022-11-07T13:19:21.165Z,1.38
2022-11-07T13:22:02.888Z,1.33
2022-11-07T13:24:30.547Z,2.15
2022-11-07T13:26:58.149Z,1.65
2022-11-07T13:29:34.033Z,1.63
2022-11-07T13:32:08.944Z,2.35
2022-11-07T13:34:58.565Z,1.75
2022-11-07T13:37:27.822Z,1.50
2022-11-07T13:40:27.924Z,1.15
2022-11-07T13:43:32.223Z,1.67
2022-11-07T13:46:05.962Z,2.20
2022-11-07T13:48:39.841Z,1.38
2022-11-07T13:51:14.242Z,1.42
2022-11-07T13:54:14.468Z,1.10
2022-11-07T13:56:46.433Z,1.50
2022-11-07T13:59:32.457Z,1.58
2022-11-07T14:02:02.317Z,2.03
2022-11-07T14:04:29.736Z,1.35
2022-11-07T14:07:02.503Z,1.92
2022-11-07T14:09:31.519Z,1.45
2022-11-07T14:11:58.436Z,1.80
2022-11-07T14:14:27.256Z,1.80
2022-11-07T14:17:00.398Z,1.10
2022-11-07T14:19:27.984Z,1.27
2022-11-07T14:21:56.149Z,1.40
2022-11-07T14:24:32.737Z,0.88
2022-11-07T14:27:14.655Z,1.20
2022-11-07T14:29:56.072Z,1.10
2022-11-07T14:32:26.989Z,1.33
2022-11-07T14:34:59.982Z,1.60
2022-11-07T14:37:26.897Z,2.08
2022-11-07T14:39:53.910Z,2.60
2022-11-07T14:42:24.941Z,2.10
2022-11-07T14:44:56.135Z,2.80
2022-11-07T14:47:32.966Z,2.30
2022-11-07T14:50:01.880Z,1.50
2022-11-07T14:52:36.875Z,1.38
2022-11-07T14:55:14.456Z,1.40
2022-11-07T14:57:41.765Z,1.30
2022-11-07T15:00:14.745Z,1.50
2022-11-07T15:02:42.361Z,1.90
2022-11-07T15:05:30.647Z,1.55
2022-11-07T15:08:00.018Z,1.60
2022-11-07T15:10:33.770Z,1.90
2022-11-07T15:13:24.478Z,1.83
2022-11-07T15:16:01.893Z,1.58
2022-11-07T15:18:29.762Z,1.70
2022-11-07T15:20:59.477Z,2.10
2022-11-07T15:23:34.996Z,1.60
2022-11-07T15:26:12.699Z,3.00
2022-11-07T15:28:42.391Z,1.75
2022-11-07T15:31:22.703Z,1.88
2022-11-07T15:33:50.361Z,1.60
2022-11-07T15:36:17.845Z,2.00
2022-11-07T15:38:45.172Z,1.95
2022-11-07T15:41:12.610Z,1.88
2022-11-07T15:43:39.405Z,1.77
2022-11-07T15:46:21.056Z,1.50
2022-11-07T15:48:48.400Z,1.60
2022-11-07T15:51:15.144Z,1.92
2022-11-07T15:53:41.859Z,2.30
2022-11-07T15:56:14.366Z,2.17
2022-11-07T15:58:41.452Z,2.60
2022-11-07T16:01:08.291Z,2.40
2022-11-07T16:03:34.987Z,2.10
2022-11-07T16:06:02.211Z,2.25
2022-11-07T16:08:30.467Z,4.10
2022-11-07T16:11:01.162Z,6.10
2022-11-07T16:13:28.470Z,6.45
2022-11-07T16:16:00.159Z,6.15
2022-11-07T16:18:27.465Z,6.13
2022-11-07T16:20:54.130Z,4.47
2022-11-07T16:23:20.898Z,4.68
2022-11-07T16:25:50.133Z,5.70
2022-11-07T16:28:26.548Z,5.82
2022-11-07T16:30:53.729Z,6.15
2022-11-07T16:33:20.522Z,6.10
2022-11-07T16:35:49.357Z,5.97
2022-11-07T16:38:18.767Z,5.10
2022-11-07T16:40:46.529Z,5.15
2022-11-07T16:43:13.589Z,4.60
2022-11-07T16:45:48.483Z,5.38
2022-11-07T16:48:23.711Z,6.30
2022-11-07T16:50:51.025Z,5.47
2022-11-07T16:53:17.803Z,5.78
2022-11-07T16:55:53.120Z,6.47
2022-11-07T16:58:27.679Z,6.70
2022-11-07T17:00:56.574Z,5.60
2022-11-07T17:03:24.290Z,3.67
2022-11-07T17:05:56.028Z,4.65
2022-11-07T17:08:37.588Z,4.45
2022-11-07T17:11:05.299Z,8.77
2022-11-07T17:13:31.998Z,6.28
2022-11-07T17:15:58.990Z,4.22
2022-11-07T17:18:29.371Z,3.90
2022-11-07T17:20:57.197Z,4.35
2022-11-07T17:23:29.950Z,3.95
2022-11-07T17:26:00.366Z,3.42
2022-11-07T17:28:27.155Z,4.10
2022-11-07T17:30:53.880Z,3.78
2022-11-07T17:33:20.614Z,3.47
2022-11-07T17:35:48.716Z,5.50
2022-11-07T17:38:17.255Z,5.03
2022-11-07T17:40:44.548Z,4.75
2022-11-07T17:43:11.225Z,3.83
2022-11-07T17:45:38.179Z,4.13
2022-11-07T17:48:05.119Z,3.42
2022-11-07T17:50:31.789Z,4.25
2022-11-07T17:52:58.562Z,3.55
2022-11-07T17:55:25.599Z,4.53
2022-11-07T17:57:52.434Z,6.13
2022-11-07T18:00:24.586Z,5.28
2022-11-07T18:02:52.912Z,5.60
2022-11-07T18:05:22.396Z,6.20
2022-11-07T18:07:49.225Z,6.10
2022-11-07T18:10:16.585Z,5.68
2022-11-07T18:12:43.494Z,5.20
2022-11-07T18:15:13.208Z,4.50
2022-11-07T18:17:41.235Z,3.83
2022-11-07T18:20:09.655Z,3.83
2022-11-07T18:22:37.279Z,3.85
2022-11-07T18:25:08.684Z,3.33
2022-11-07T18:27:35.813Z,2.67
2022-11-07T18:30:03.883Z,2.28
2022-11-07T18:32:35.881Z,4.38
2022-11-07T18:35:06.074Z,2.83
2022-11-07T18:37:33.106Z,3.70
2022-11-07T18:39:59.732Z,3.95
2022-11-07T18:42:26.454Z,5.47
2022-11-07T18:44:53.097Z,5.35
2022-11-07T18:47:19.862Z,6.03
2022-11-07T18:49:46.531Z,6.07
2022-11-07T18:52:13.505Z,5.47
2022-11-07T18:54:40.182Z,6.15
2022-11-07T18:57:06.888Z,6.20
2022-11-07T18:59:34.334Z,6.07
2022-11-07T19:02:01.197Z,6.28
2022-11-07T19:04:28.169Z,6.20
2022-11-07T19:06:57.727Z,5.80
2022-11-07T19:09:29.985Z,6.80
2022-11-07T19:11:58.088Z,5.70
2022-11-07T19:14:25.944Z,5.80
2022-11-07T19:16:53.198Z,5.70
2022-11-07T19:19:19.874Z,5.90
2022-11-07T19:21:46.568Z,6.32
2022-11-07T19:24:13.307Z,6.53
2022-11-07T19:26:40.529Z,7.30
2022-11-07T19:29:10.024Z,6.38
2022-11-07T19:31:37.837Z,6.72
2022-11-07T19:34:05.633Z,6.22
2022-11-07T19:36:32.503Z,5.55
2022-11-07T19:38:59.324Z,6.78
2022-11-07T19:41:26.144Z,6.05
2022-11-07T19:43:52.967Z,6.03
2022-11-07T19:46:23.374Z,6.70
2022-11-07T19:48:51.292Z,5.53
2022-11-07T19:51:22.517Z,6.32
2022-11-07T19:53:57.718Z,6.13
2022-11-07T19:56:25.936Z,6.50
2022-11-07T19:58:54.508Z,5.80
2022-11-07T20:01:27.797Z,3.92
2022-11-07T20:03:55.255Z,4.82
2022-11-07T20:06:25.615Z,3.95
2022-11-07T20:08:52.559Z,4.70
2022-11-07T20:11:21.699Z,3.95
2022-11-07T20:13:48.513Z,4.25
2022-11-07T20:16:15.801Z,6.22
2022-11-07T20:18:42.822Z,5.82
2022-11-07T20:21:13.749Z,6.13
2022-11-07T20:23:44.176Z,6.15
2022-11-07T20:26:13.606Z,5.03
2022-11-07T20:28:40.591Z,4.28
2022-11-07T20:31:22.161Z,3.90
2022-11-07T20:33:49.251Z,4.10
2022-11-07T20:36:16.816Z,3.63
2022-11-07T20:38:44.191Z,4.40
2022-11-07T20:41:12.518Z,4.68
2022-11-07T20:43:40.349Z,4.30
2022-11-07T20:46:13.372Z,4.07
2022-11-07T20:48:40.179Z,3.88
2022-11-07T20:51:20.077Z,3.38
2022-11-07T20:53:50.446Z,3.85
2022-11-07T20:56:22.089Z,3.88
2022-11-07T20:58:48.983Z,3.95
2022-11-07T21:01:18.831Z,3.80
2022-11-07T21:03:46.278Z,4.00
2022-11-07T21:06:13.528Z,3.33
2022-11-07T21:08:42.262Z,3.42
2022-11-07T21:11:10.320Z,4.03
2022-11-07T21:13:38.097Z,3.63
2022-11-07T21:16:06.784Z,3.53
2022-11-07T21:18:33.512Z,3.55
2022-11-07T21:21:16.612Z,2.47
2022-11-07T21:23:44.116Z,3.50
2022-11-07T21:26:18.964Z,3.30
2022-11-07T21:28:46.517Z,3.35
2022-11-07T21:31:18.146Z,3.42
2022-11-07T21:33:46.211Z,4.03
2022-11-07T21:36:17.319Z,4.18
2022-11-07T21:38:46.069Z,3.20
2022-11-07T21:41:14.625Z,4.00
2022-11-07T21:43:42.289Z,3.63
2022-11-07T21:46:15.642Z,3.38
2022-11-07T21:48:43.427Z,3.80
2022-11-07T21:51:22.119Z,3.58
2022-11-07T21:53:50.429Z,3.42
2022-11-07T21:56:26.146Z,3.63
2022-11-07T21:58:56.212Z,4.15
2022-11-07T22:01:24.090Z,4.05
2022-11-07T22:04:09.665Z,5.68
2022-11-07T22:06:39.954Z,4.68
2022-11-07T22:09:08.240Z,4.82
2022-11-07T22:11:35.108Z,4.82
2022-11-07T22:14:02.757Z,4.55
2022-11-07T22:16:29.777Z,4.35
2022-11-07T22:18:59.357Z,4.45
2022-11-07T22:21:26.518Z,4.47
2022-11-07T22:23:53.888Z,4.90
2022-11-07T22:26:23.887Z,4.85
2022-11-07T22:28:51.373Z,5.13
2022-11-07T22:31:24.452Z,5.70
2022-11-07T22:33:53.156Z,5.22
2022-11-07T22:36:21.185Z,4.53
2022-11-07T22:38:48.022Z,4.35
2022-11-07T22:41:20.898Z,4.18
2022-11-07T22:43:48.714Z,3.63
2022-11-07T22:46:19.499Z,3.33
2022-11-07T22:48:47.548Z,3.75
2022-11-07T22:51:18.098Z,2.88
2022-11-07T22:53:45.276Z,3.78
2022-11-07T22:56:13.163Z,3.50
2022-11-07T22:58:40.724Z,3.83
2022-11-07T23:01:18.192Z,3.72
2022-11-07T23:03:46.054Z,3.50
2022-11-07T23:06:13.076Z,2.53
2022-11-07T23:08:40.190Z,2.03
2022-11-07T23:14:05.791Z,3.65
2022-11-07T23:16:37.444Z,3.25
2022-11-07T23:19:07.629Z,3.47
2022-11-07T23:21:35.946Z,3.65
2022-11-07T23:24:03.259Z,3.70
2022-11-07T23:26:33.899Z,4.05
2022-11-07T23:29:10.491Z,4.10
2022-11-07T23:31:39.966Z,3.60
2022-11-07T23:34:07.272Z,3.97
2022-11-07T23:36:33.992Z,3.55
2022-11-07T23:39:06.065Z,3.70
2022-11-07T23:41:33.459Z,3.53
2022-11-07T23:44:02.802Z,3.88
2022-11-07T23:46:48.332Z,3.63
2022-11-07T23:49:33.672Z,3.58
2022-11-07T23:52:00.427Z,3.60
2022-11-07T23:54:45.715Z,3.63
2022-11-07T23:57:12.967Z,3.25
2022-11-07T23:59:58.187Z,3.65
